sensor_id;sensor_type;location;lat;lon;timestamp;temperature;humidity
20885;DHT22;10602;48.000;9.654;2024-01-15T00:00:09;-0.50;1.00
20885;DHT22;10602;48.000;9.654;2024-01-15T00:02:36;-0.40;1.00
20885;DHT22;10602;48.000;9.654;2024-01-15T00:05:04;-0.40;1.00
20885;DHT22;10602;48.000;9.654;2024-01-15T00:07:32;-0.40;1.00
20885;DHT22;10602;48.000;9.654;2024-01-15T00:09:59;-0.60;1.00
20885;DHT22;10602;48.000;9.654;2024-01-15T00:12:27;-0.70;1.00
20885;DHT22;10602;48.000;9.654;2024-01-15T00:14:59;-0.70;1.00
20885;DHT22;10602;48.000;9.654;2024-01-15T00:17:27;-0.60;1.00
20885;DHT22;10602;48.000;9.654;2024-01-15T00:19:57;-0.80;1.00
20885;DHT22;10602;48.000;9.654;2024-01-15T00:22:28;-0.80;1.00
20885;DHT22;10602;48.000;9.654;2024-01-15T00:24:55;-0.80;1.00
20885;DHT22;10602;48.000;9.654;2024-01-15T00:27:23;-0.80;1.00
20885;DHT22;10602;48.000;9.654;2024-01-15T00:29:50;-1.20;1.00
20885;DHT22;10602;48.000;9.654;2024-01-15T00:32:18;-1.30;1.00
20885;DHT22;10602;48.000;9.654;2024-01-15T00:34:46;-1.20;1.00
20885;DHT22;10602;48.000;9.654;2024-01-15T00:37:14;-1.50;1.00
20885;DHT22;10602;48.000;9.654;2024-01-15T00:39:43;-1.70;1.00
20885;DHT22;10602;48.000;9.654;2024-01-15T00:42:10;-1.70;1.00
20885;DHT22;10602;48.000;9.654;2024-01-15T00:44:37;-1.80;1.00
20885;DHT22;10602;48.000;9.654;2024-01-15T00:47:05;-1.80;1.00
20885;DHT22;10602;48.000;9.654;2024-01-15T00:49:34;-2.10;1.00
20885;DHT22;10602;48.000;9.654;2024-01-15T00:52:07;-2.00;1.00
20885;DHT22;10602;48.000;9.654;2024-01-15T00:54:34;-2.10;1.00
20885;DHT22;10602;48.000;9.654;2024-01-15T00:57:06;-2.10;1.00
20885;DHT22;10602;48.000;9.654;2024-01-15T00:59:36;-2.10;1.00
20885;DHT22;10602;48.000;9.654;2024-01-15T01:02:06;-2.20;1.00
20885;DHT22;10602;48.000;9.654;2024-01-15T01:04:35;-2.20;1.00
20885;DHT22;10602;48.000;9.654;2024-01-15T01:07:04;-2.30;1.00
20885;DHT22;10602;48.000;9.654;2024-01-15T01:09:34;-2.30;1.00
20885;DHT22;10602;48.000;9.654;2024-01-15T01:12:05;-2.40;1.00
20885;DHT22;10602;48.000;9.654;2024-01-15T01:14:34;-2.20;1.00
20885;DHT22;10602;48.000;9.654;2024-01-15T01:17:04;-2.30;1.00
20885;DHT22;10602;48.000;9.654;2024-01-15T01:19:42;-2.30;1.00
20885;DHT22;10602;48.000;9.654;2024-01-15T01:22:04;-2.30;1.00
20885;DHT22;10602;48.000;9.654;2024-01-15T01:24:32;-2.40;1.00
20885;DHT22;10602;48.000;9.654;2024-01-15T01:27:01;-2.50;1.00
20885;DHT22;10602;48.000;9.654;2024-01-15T01:29:29;-2.50;1.00
20885;DHT22;10602;48.000;9.654;2024-01-15T01:32:01;-2.70;1.00
20885;DHT22;10602;48.000;9.654;2024-01-15T01:34:32;-2.70;1.00
20885;DHT22;10602;48.000;9.654;2024-01-15T01:37:07;-2.80;1.00
20885;DHT22;10602;48.000;9.654;2024-01-15T01:39:45;-2.80;1.00
20885;DHT22;10602;48.000;9.654;2024-01-15T01:42:15;-2.90;1.00
20885;DHT22;10602;48.000;9.654;2024-01-15T01:44:42;-2.90;1.00
20885;DHT22;10602;48.000;9.654;2024-01-15T01:47:10;-2.80;1.00
20885;DHT22;10602;48.000;9.654;2024-01-15T01:49:41;-3.00;1.00
20885;DHT22;10602;48.000;9.654;2024-01-15T01:52:09;-3.00;1.00
20885;DHT22;10602;48.000;9.654;2024-01-15T01:54:39;-3.10;1.00
20885;DHT22;10602;48.000;9.654;2024-01-15T01:57:08;-3.20;1.00
20885;DHT22;10602;48.000;9.654;2024-01-15T01:59:37;-3.20;1.00
20885;DHT22;10602;48.000;9.654;2024-01-15T02:02:06;-3.20;1.00
20885;DHT22;10602;48.000;9.654;2024-01-15T02:04:33;-3.20;1.00
20885;DHT22;10602;48.000;9.654;2024-01-15T02:07:03;-3.10;1.00
20885;DHT22;10602;48.000;9.654;2024-01-15T02:09:32;-3.20;1.00
20885;DHT22;10602;48.000;9.654;2024-01-15T02:11:59;-3.30;1.00
20885;DHT22;10602;48.000;9.654;2024-01-15T02:14:27;-3.20;1.00
20885;DHT22;10602;48.000;9.654;2024-01-15T02:16:56;-3.20;1.00
20885;DHT22;10602;48.000;9.654;2024-01-15T02:19:24;-3.30;1.00
20885;DHT22;10602;48.000;9.654;2024-01-15T02:21:51;-3.30;1.00
20885;DHT22;10602;48.000;9.654;2024-01-15T02:24:20;-3.30;1.00
20885;DHT22;10602;48.000;9.654;2024-01-15T02:26:48;-3.30;1.00
20885;DHT22;10602;48.000;9.654;2024-01-15T02:29:16;-3.40;1.00
20885;DHT22;10602;48.000;9.654;2024-01-15T02:31:45;-3.30;1.00
20885;DHT22;10602;48.000;9.654;2024-01-15T02:34:13;-3.30;1.00
20885;DHT22;10602;48.000;9.654;2024-01-15T02:36:45;-3.20;1.00
20885;DHT22;10602;48.000;9.654;2024-01-15T02:39:13;-3.20;1.00
20885;DHT22;10602;48.000;9.654;2024-01-15T02:41:41;-3.20;1.00
20885;DHT22;10602;48.000;9.654;2024-01-15T02:44:08;-3.00;1.00
20885;DHT22;10602;48.000;9.654;2024-01-15T02:46:39;-3.00;1.00
20885;DHT22;10602;48.000;9.654;2024-01-15T02:49:09;-2.90;1.00
20885;DHT22;10602;48.000;9.654;2024-01-15T02:51:37;-2.90;1.00
20885;DHT22;10602;48.000;9.654;2024-01-15T02:54:07;-2.80;1.00
20885;DHT22;10602;48.000;9.654;2024-01-15T02:56:37;-2.70;1.00
20885;DHT22;10602;48.000;9.654;2024-01-15T02:59:06;-2.70;1.00
20885;DHT22;10602;48.000;9.654;2024-01-15T03:01:34;-2.60;1.00
20885;DHT22;10602;48.000;9.654;2024-01-15T03:04:07;-2.50;1.00
20885;DHT22;10602;48.000;9.654;2024-01-15T03:06:35;-2.50;1.00
20885;DHT22;10602;48.000;9.654;2024-01-15T03:09:03;-2.40;1.00
20885;DHT22;10602;48.000;9.654;2024-01-15T03:11:38;-2.30;1.00
20885;DHT22;10602;48.000;9.654;2024-01-15T03:14:07;-2.30;1.00
20885;DHT22;10602;48.000;9.654;2024-01-15T03:16:34;-2.20;1.00
20885;DHT22;10602;48.000;9.654;2024-01-15T03:19:02;-2.20;1.00
20885;DHT22;10602;48.000;9.654;2024-01-15T03:21:29;-2.20;1.00
20885;DHT22;10602;48.000;9.654;2024-01-15T03:23:57;-2.10;1.00
20885;DHT22;10602;48.000;9.654;2024-01-15T03:26:27;-2.10;1.00
20885;DHT22;10602;48.000;9.654;2024-01-15T03:28:57;-2.10;1.00
20885;DHT22;10602;48.000;9.654;2024-01-15T03:31:24;-2.20;1.00
20885;DHT22;10602;48.000;9.654;2024-01-15T03:33:52;-2.20;1.00
20885;DHT22;10602;48.000;9.654;2024-01-15T03:36:20;-2.10;1.00
20885;DHT22;10602;48.000;9.654;2024-01-15T03:38:47;-2.10;1.00
20885;DHT22;10602;48.000;9.654;2024-01-15T03:41:15;-2.20;1.00
20885;DHT22;10602;48.000;9.654;2024-01-15T03:43:42;-2.10;1.00
20885;DHT22;10602;48.000;9.654;2024-01-15T03:46:10;-2.20;1.00
20885;DHT22;10602;48.000;9.654;2024-01-15T03:48:42;-2.10;1.00
20885;DHT22;10602;48.000;9.654;2024-01-15T03:51:09;-2.10;1.00
20885;DHT22;10602;48.000;9.654;2024-01-15T03:53:38;-2.20;1.00
20885;DHT22;10602;48.000;9.654;2024-01-15T03:56:06;-2.10;1.00
20885;DHT22;10602;48.000;9.654;2024-01-15T03:58:33;-2.20;1.00
20885;DHT22;10602;48.000;9.654;2024-01-15T04:01:01;-2.20;1.00
20885;DHT22;10602;48.000;9.654;2024-01-15T04:03:28;-2.40;1.00
20885;DHT22;10602;48.000;9.654;2024-01-15T04:05:56;-2.40;1.00
20885;DHT22;10602;48.000;9.654;2024-01-15T04:08:23;-2.50;1.00
20885;DHT22;10602;48.000;9.654;2024-01-15T04:10:51;-2.40;1.00
20885;DHT22;10602;48.000;9.654;2024-01-15T04:13:18;-2.50;1.00
20885;DHT22;10602;48.000;9.654;2024-01-15T04:15:46;-2.30;1.00
20885;DHT22;10602;48.000;9.654;2024-01-15T04:18:16;-2.40;1.00
20885;DHT22;10602;48.000;9.654;2024-01-15T04:20:44;-2.40;1.00
20885;DHT22;10602;48.000;9.654;2024-01-15T04:23:12;-2.40;1.00
20885;DHT22;10602;48.000;9.654;2024-01-15T04:25:43;-2.50;1.00
20885;DHT22;10602;48.000;9.654;2024-01-15T04:28:13;-2.50;1.00
20885;DHT22;10602;48.000;9.654;2024-01-15T04:30:40;-2.50;1.00
20885;DHT22;10602;48.000;9.654;2024-01-15T04:33:08;-2.50;1.00
20885;DHT22;10602;48.000;9.654;2024-01-15T04:35:36;-2.60;1.00
20885;DHT22;10602;48.000;9.654;2024-01-15T04:38:04;-2.50;1.00
20885;DHT22;10602;48.000;9.654;2024-01-15T04:40:32;-2.40;1.00
20885;DHT22;10602;48.000;9.654;2024-01-15T04:42:59;-2.40;1.00
20885;DHT22;10602;48.000;9.654;2024-01-15T04:45:27;-2.30;1.00
20885;DHT22;10602;48.000;9.654;2024-01-15T04:47:55;-2.30;1.00
20885;DHT22;10602;48.000;9.654;2024-01-15T04:50:24;-2.20;99.90
20885;DHT22;10602;48.000;9.654;2024-01-15T04:52:51;-2.20;99.90
20885;DHT22;10602;48.000;9.654;2024-01-15T04:55:19;-2.00;1.00
20885;DHT22;10602;48.000;9.654;2024-01-15T04:57:47;-2.10;99.90
20885;DHT22;10602;48.000;9.654;2024-01-15T05:00:14;-2.20;99.90
20885;DHT22;10602;48.000;9.654;2024-01-15T05:02:43;-2.20;99.90
20885;DHT22;10602;48.000;9.654;2024-01-15T05:05:12;-2.10;1.00
20885;DHT22;10602;48.000;9.654;2024-01-15T05:07:40;-2.00;1.00
20885;DHT22;10602;48.000;9.654;2024-01-15T05:10:07;-2.20;1.00
20885;DHT22;10602;48.000;9.654;2024-01-15T05:12:35;-2.20;1.00
20885;DHT22;10602;48.000;9.654;2024-01-15T05:15:03;-2.20;1.00
20885;DHT22;10602;48.000;9.654;2024-01-15T05:17:31;-2.20;1.00
20885;DHT22;10602;48.000;9.654;2024-01-15T05:19:58;-2.00;1.00
20885;DHT22;10602;48.000;9.654;2024-01-15T05:24:58;-2.20;1.00
20885;DHT22;10602;48.000;9.654;2024-01-15T05:27:25;-2.20;1.00
20885;DHT22;10602;48.000;9.654;2024-01-15T05:29:53;-2.20;1.00
20885;DHT22;10602;48.000;9.654;2024-01-15T05:32:22;-2.20;1.00
20885;DHT22;10602;48.000;9.654;2024-01-15T05:34:50;-2.00;1.00
20885;DHT22;10602;48.000;9.654;2024-01-15T05:37:18;-2.00;1.00
20885;DHT22;10602;48.000;9.654;2024-01-15T05:39:45;-2.00;1.00
20885;DHT22;10602;48.000;9.654;2024-01-15T05:42:20;-2.00;1.00
20885;DHT22;10602;48.000;9.654;2024-01-15T05:44:52;-2.00;1.00
20885;DHT22;10602;48.000;9.654;2024-01-15T05:47:20;-2.00;1.00
20885;DHT22;10602;48.000;9.654;2024-01-15T05:49:47;-2.20;1.00
20885;DHT22;10602;48.000;9.654;2024-01-15T05:52:15;-2.10;1.00
20885;DHT22;10602;48.000;9.654;2024-01-15T05:54:43;-2.20;1.00
20885;DHT22;10602;48.000;9.654;2024-01-15T05:57:10;-2.20;1.00
20885;DHT22;10602;48.000;9.654;2024-01-15T05:59:39;-2.10;1.00
20885;DHT22;10602;48.000;9.654;2024-01-15T06:02:07;-2.20;1.00
20885;DHT22;10602;48.000;9.654;2024-01-15T06:04:34;-2.10;1.00
20885;DHT22;10602;48.000;9.654;2024-01-15T06:07:02;-2.00;1.00
20885;DHT22;10602;48.000;9.654;2024-01-15T06:09:29;-2.10;1.00
20885;DHT22;10602;48.000;9.654;2024-01-15T06:11:58;-2.10;1.00
20885;DHT22;10602;48.000;9.654;2024-01-15T06:14:25;-2.00;1.00
20885;DHT22;10602;48.000;9.654;2024-01-15T06:16:53;-2.00;1.00
20885;DHT22;10602;48.000;9.654;2024-01-15T06:19:20;-2.00;1.00
20885;DHT22;10602;48.000;9.654;2024-01-15T06:21:48;-1.90;1.00
20885;DHT22;10602;48.000;9.654;2024-01-15T06:24:15;-1.80;1.00
20885;DHT22;10602;48.000;9.654;2024-01-15T06:26:45;-1.80;1.00
20885;DHT22;10602;48.000;9.654;2024-01-15T06:29:13;-1.70;1.00
20885;DHT22;10602;48.000;9.654;2024-01-15T06:31:41;-1.70;99.90
20885;DHT22;10602;48.000;9.654;2024-01-15T06:34:08;-1.70;99.90
20885;DHT22;10602;48.000;9.654;2024-01-15T06:36:36;-1.70;99.90
20885;DHT22;10602;48.000;9.654;2024-01-15T06:39:06;-1.70;1.00
20885;DHT22;10602;48.000;9.654;2024-01-15T06:41:34;-1.80;1.00
20885;DHT22;10602;48.000;9.654;2024-01-15T06:44:02;-1.60;99.90
20885;DHT22;10602;48.000;9.654;2024-01-15T06:46:30;-1.60;99.90
20885;DHT22;10602;48.000;9.654;2024-01-15T06:48:58;-1.70;99.90
20885;DHT22;10602;48.000;9.654;2024-01-15T06:51:25;-1.40;99.90
20885;DHT22;10602;48.000;9.654;2024-01-15T06:53:53;-1.40;99.90
20885;DHT22;10602;48.000;9.654;2024-01-15T06:56:20;-1.50;99.90
20885;DHT22;10602;48.000;9.654;2024-01-15T06:58:50;-1.30;50.30
20885;DHT22;10602;48.000;9.654;2024-01-15T07:01:17;-1.20;1.00
20885;DHT22;10602;48.000;9.654;2024-01-15T07:03:45;-1.30;1.00
20885;DHT22;10602;48.000;9.654;2024-01-15T07:06:13;-1.20;1.00
20885;DHT22;10602;48.000;9.654;2024-01-15T07:08:40;-1.30;1.00
20885;DHT22;10602;48.000;9.654;2024-01-15T07:11:08;-1.10;1.00
20885;DHT22;10602;48.000;9.654;2024-01-15T07:13:38;-1.00;1.00
20885;DHT22;10602;48.000;9.654;2024-01-15T07:16:06;-1.20;1.00
20885;DHT22;10602;48.000;9.654;2024-01-15T07:18:40;-1.20;1.00
20885;DHT22;10602;48.000;9.654;2024-01-15T07:21:19;-1.30;1.00
20885;DHT22;10602;48.000;9.654;2024-01-15T07:23:48;-1.10;1.00
20885;DHT22;10602;48.000;9.654;2024-01-15T07:26:16;-1.30;29.60
20885;DHT22;10602;48.000;9.654;2024-01-15T07:28:46;-1.20;1.00
20885;DHT22;10602;48.000;9.654;2024-01-15T07:31:17;-1.20;1.00
20885;DHT22;10602;48.000;9.654;2024-01-15T07:33:46;-1.30;1.00
20885;DHT22;10602;48.000;9.654;2024-01-15T07:36:15;-1.40;1.00
20885;DHT22;10602;48.000;9.654;2024-01-15T07:43:04;-1.20;1.00
20885;DHT22;10602;48.000;9.654;2024-01-15T07:45:36;-1.30;1.00
20885;DHT22;10602;48.000;9.654;2024-01-15T07:48:03;-1.10;1.00
20885;DHT22;10602;48.000;9.654;2024-01-15T07:50:31;-1.10;1.00
20885;DHT22;10602;48.000;9.654;2024-01-15T07:52:59;-1.30;1.00
20885;DHT22;10602;48.000;9.654;2024-01-15T07:55:26;-1.30;29.70
20885;DHT22;10602;48.000;9.654;2024-01-15T07:57:54;-1.30;27.50
20885;DHT22;10602;48.000;9.654;2024-01-15T08:00:24;-1.40;70.60
20885;DHT22;10602;48.000;9.654;2024-01-15T08:02:53;-1.30;1.00
20885;DHT22;10602;48.000;9.654;2024-01-15T08:05:20;-1.30;1.00
20885;DHT22;10602;48.000;9.654;2024-01-15T08:07:48;-1.40;1.00
20885;DHT22;10602;48.000;9.654;2024-01-15T08:10:22;-1.30;1.00
20885;DHT22;10602;48.000;9.654;2024-01-15T08:12:49;-1.30;1.00
20885;DHT22;10602;48.000;9.654;2024-01-15T08:15:17;-1.40;1.00
20885;DHT22;10602;48.000;9.654;2024-01-15T08:17:44;-1.30;1.00
20885;DHT22;10602;48.000;9.654;2024-01-15T08:20:12;-1.40;1.00
20885;DHT22;10602;48.000;9.654;2024-01-15T08:22:39;-1.30;1.00
20885;DHT22;10602;48.000;9.654;2024-01-15T08:25:07;-1.30;1.00
20885;DHT22;10602;48.000;9.654;2024-01-15T08:27:36;-1.30;1.00
20885;DHT22;10602;48.000;9.654;2024-01-15T08:30:03;-1.20;1.00
20885;DHT22;10602;48.000;9.654;2024-01-15T08:32:31;-1.30;1.00
20885;DHT22;10602;48.000;9.654;2024-01-15T08:34:59;-1.20;1.00
20885;DHT22;10602;48.000;9.654;2024-01-15T08:37:26;-1.10;1.00
20885;DHT22;10602;48.000;9.654;2024-01-15T08:39:54;-1.10;1.00
20885;DHT22;10602;48.000;9.654;2024-01-15T08:42:21;-1.30;1.00
20885;DHT22;10602;48.000;9.654;2024-01-15T08:44:49;-1.30;79.90
20885;DHT22;10602;48.000;9.654;2024-01-15T08:47:17;-1.10;1.00
20885;DHT22;10602;48.000;9.654;2024-01-15T08:49:44;-1.10;1.00
20885;DHT22;10602;48.000;9.654;2024-01-15T08:52:12;-1.10;1.00
20885;DHT22;10602;48.000;9.654;2024-01-15T08:54:40;-1.20;1.00
20885;DHT22;10602;48.000;9.654;2024-01-15T08:57:07;-1.30;99.90
20885;DHT22;10602;48.000;9.654;2024-01-15T08:59:35;-1.00;99.90
20885;DHT22;10602;48.000;9.654;2024-01-15T09:02:05;-1.20;99.90
20885;DHT22;10602;48.000;9.654;2024-01-15T09:04:34;-1.30;1.00
20885;DHT22;10602;48.000;9.654;2024-01-15T09:07:01;-1.10;11.80
20885;DHT22;10602;48.000;9.654;2024-01-15T09:09:29;-1.00;1.00
20885;DHT22;10602;48.000;9.654;2024-01-15T09:11:56;-1.00;1.00
20885;DHT22;10602;48.000;9.654;2024-01-15T09:14:24;-1.00;99.90
20885;DHT22;10602;48.000;9.654;2024-01-15T09:16:53;-1.10;99.90
20885;DHT22;10602;48.000;9.654;2024-01-15T09:19:21;-1.00;33.40
20885;DHT22;10602;48.000;9.654;2024-01-15T09:21:48;-1.00;1.00
20885;DHT22;10602;48.000;9.654;2024-01-15T09:24:16;-1.10;1.00
20885;DHT22;10602;48.000;9.654;2024-01-15T09:26:44;-1.00;99.90
20885;DHT22;10602;48.000;9.654;2024-01-15T09:29:11;-0.80;1.00
20885;DHT22;10602;48.000;9.654;2024-01-15T09:31:41;-0.70;78.30
20885;DHT22;10602;48.000;9.654;2024-01-15T09:34:08;-0.90;99.90
20885;DHT22;10602;48.000;9.654;2024-01-15T09:36:41;-0.90;1.00
20885;DHT22;10602;48.000;9.654;2024-01-15T09:39:09;-1.00;31.60
20885;DHT22;10602;48.000;9.654;2024-01-15T09:41:38;-0.80;1.00
20885;DHT22;10602;48.000;9.654;2024-01-15T09:44:06;-0.90;1.00
20885;DHT22;10602;48.000;9.654;2024-01-15T09:46:36;-0.80;65.90
20885;DHT22;10602;48.000;9.654;2024-01-15T09:49:04;-0.80;99.90
20885;DHT22;10602;48.000;9.654;2024-01-15T09:51:32;-0.90;99.90
20885;DHT22;10602;48.000;9.654;2024-01-15T09:54:00;-0.80;99.90
20885;DHT22;10602;48.000;9.654;2024-01-15T09:56:28;-0.30;1.00
20885;DHT22;10602;48.000;9.654;2024-01-15T09:58:55;0.80;1.00
20885;DHT22;10602;48.000;9.654;2024-01-15T10:01:23;2.10;1.00
20885;DHT22;10602;48.000;9.654;2024-01-15T10:03:52;3.40;99.90
20885;DHT22;10602;48.000;9.654;2024-01-15T10:06:21;4.40;1.00
20885;DHT22;10602;48.000;9.654;2024-01-15T10:08:50;5.30;1.00
20885;DHT22;10602;48.000;9.654;2024-01-15T10:11:18;5.50;1.00
20885;DHT22;10602;48.000;9.654;2024-01-15T10:13:46;5.50;1.00
20885;DHT22;10602;48.000;9.654;2024-01-15T10:16:15;5.30;99.90
20885;DHT22;10602;48.000;9.654;2024-01-15T10:18:43;5.50;99.90
20885;DHT22;10602;48.000;9.654;2024-01-15T10:21:10;5.80;99.90
20885;DHT22;10602;48.000;9.654;2024-01-15T10:23:38;5.60;99.90
20885;DHT22;10602;48.000;9.654;2024-01-15T10:26:06;5.40;99.90
20885;DHT22;10602;48.000;9.654;2024-01-15T10:28:33;5.30;99.90
20885;DHT22;10602;48.000;9.654;2024-01-15T10:31:02;5.70;99.90
20885;DHT22;10602;48.000;9.654;2024-01-15T10:33:30;5.60;99.90
20885;DHT22;10602;48.000;9.654;2024-01-15T10:36:00;4.50;99.90
20885;DHT22;10602;48.000;9.654;2024-01-15T10:38:27;4.00;1.00
20885;DHT22;10602;48.000;9.654;2024-01-15T10:40:55;3.50;1.00
20885;DHT22;10602;48.000;9.654;2024-01-15T10:43:24;3.90;1.00
20885;DHT22;10602;48.000;9.654;2024-01-15T10:45:51;4.50;1.00
20885;DHT22;10602;48.000;9.654;2024-01-15T10:48:19;4.90;1.00
20885;DHT22;10602;48.000;9.654;2024-01-15T10:50:47;5.50;1.00
20885;DHT22;10602;48.000;9.654;2024-01-15T10:53:17;5.80;1.00
20885;DHT22;10602;48.000;9.654;2024-01-15T10:55:47;6.00;1.00
20885;DHT22;10602;48.000;9.654;2024-01-15T10:58:18;5.70;1.00
20885;DHT22;10602;48.000;9.654;2024-01-15T11:00:50;5.40;1.00
20885;DHT22;10602;48.000;9.654;2024-01-15T11:03:20;5.50;1.00
20885;DHT22;10602;48.000;9.654;2024-01-15T11:05:48;5.90;1.00
20885;DHT22;10602;48.000;9.654;2024-01-15T11:08:17;5.80;1.00
20885;DHT22;10602;48.000;9.654;2024-01-15T11:10:58;5.50;1.00
20885;DHT22;10602;48.000;9.654;2024-01-15T11:17:01;5.50;1.00
20885;DHT22;10602;48.000;9.654;2024-01-15T11:19:48;6.00;1.00
20885;DHT22;10602;48.000;9.654;2024-01-15T11:25:23;5.00;1.00
20885;DHT22;10602;48.000;9.654;2024-01-15T11:27:44;5.40;1.00
20885;DHT22;10602;48.000;9.654;2024-01-15T11:30:14;5.60;1.00
20885;DHT22;10602;48.000;9.654;2024-01-15T11:32:42;5.30;1.00
20885;DHT22;10602;48.000;9.654;2024-01-15T11:35:10;5.30;1.00
20885;DHT22;10602;48.000;9.654;2024-01-15T11:40:38;4.10;1.00
20885;DHT22;10602;48.000;9.654;2024-01-15T11:43:08;3.30;1.00
20885;DHT22;10602;48.000;9.654;2024-01-15T11:45:53;2.40;1.00
20885;DHT22;10602;48.000;9.654;2024-01-15T11:48:30;2.10;1.00
20885;DHT22;10602;48.000;9.654;2024-01-15T11:50:59;1.80;1.00
20885;DHT22;10602;48.000;9.654;2024-01-15T11:53:32;1.40;99.90
20885;DHT22;10602;48.000;9.654;2024-01-15T11:56:06;1.20;1.00
20885;DHT22;10602;48.000;9.654;2024-01-15T12:03:33;0.80;1.00
20885;DHT22;10602;48.000;9.654;2024-01-15T12:06:01;0.60;99.90
20885;DHT22;10602;48.000;9.654;2024-01-15T12:08:28;1.00;1.00
20885;DHT22;10602;48.000;9.654;2024-01-15T12:10:56;1.00;1.00
20885;DHT22;10602;48.000;9.654;2024-01-15T12:15:51;0.90;1.00
20885;DHT22;10602;48.000;9.654;2024-01-15T12:18:19;0.80;33.00
20885;DHT22;10602;48.000;9.654;2024-01-15T12:23:15;0.80;99.90
20885;DHT22;10602;48.000;9.654;2024-01-15T12:25:43;0.80;1.00
20885;DHT22;10602;48.000;9.654;2024-01-15T12:33:07;0.90;99.90
20885;DHT22;10602;48.000;9.654;2024-01-15T12:35:35;1.00;1.00
20885;DHT22;10602;48.000;9.654;2024-01-15T12:38:03;1.00;1.00
20885;DHT22;10602;48.000;9.654;2024-01-15T12:40:32;1.10;1.00
20885;DHT22;10602;48.000;9.654;2024-01-15T12:43:01;1.20;1.00
20885;DHT22;10602;48.000;9.654;2024-01-15T12:45:30;1.30;99.90
20885;DHT22;10602;48.000;9.654;2024-01-15T12:47:58;1.20;1.00
20885;DHT22;10602;48.000;9.654;2024-01-15T12:50:27;1.20;99.90
20885;DHT22;10602;48.000;9.654;2024-01-15T12:52:54;1.20;1.00
20885;DHT22;10602;48.000;9.654;2024-01-15T12:55:22;1.20;1.00
20885;DHT22;10602;48.000;9.654;2024-01-15T12:57:49;1.30;1.00
20885;DHT22;10602;48.000;9.654;2024-01-15T13:00:19;1.20;99.90
20885;DHT22;10602;48.000;9.654;2024-01-15T13:02:46;1.10;99.90
20885;DHT22;10602;48.000;9.654;2024-01-15T13:05:15;1.10;99.90
20885;DHT22;10602;48.000;9.654;2024-01-15T13:07:47;1.20;99.90
20885;DHT22;10602;48.000;9.654;2024-01-15T13:10:16;1.30;99.90
20885;DHT22;10602;48.000;9.654;2024-01-15T13:12:46;1.40;1.00
20885;DHT22;10602;48.000;9.654;2024-01-15T13:15:14;1.40;31.80
20885;DHT22;10602;48.000;9.654;2024-01-15T13:17:42;1.30;99.90
20885;DHT22;10602;48.000;9.654;2024-01-15T13:20:14;1.40;99.90
20885;DHT22;10602;48.000;9.654;2024-01-15T13:22:43;1.40;1.00
20885;DHT22;10602;48.000;9.654;2024-01-15T13:25:12;1.40;1.00
20885;DHT22;10602;48.000;9.654;2024-01-15T13:27:39;1.40;1.00
20885;DHT22;10602;48.000;9.654;2024-01-15T13:30:07;1.40;1.00
20885;DHT22;10602;48.000;9.654;2024-01-15T13:32:35;1.50;1.00
20885;DHT22;10602;48.000;9.654;2024-01-15T13:35:02;1.40;1.00
20885;DHT22;10602;48.000;9.654;2024-01-15T13:37:32;1.30;51.00
20885;DHT22;10602;48.000;9.654;2024-01-15T13:39:59;1.20;1.00
20885;DHT22;10602;48.000;9.654;2024-01-15T13:42:28;1.10;70.80
20885;DHT22;10602;48.000;9.654;2024-01-15T13:44:56;1.10;1.00
20885;DHT22;10602;48.000;9.654;2024-01-15T13:47:26;1.00;99.90
20885;DHT22;10602;48.000;9.654;2024-01-15T13:54:50;1.00;1.00
20885;DHT22;10602;48.000;9.654;2024-01-15T14:12:12;1.40;99.90
20885;DHT22;10602;48.000;9.654;2024-01-15T14:14:39;0.80;99.90
20885;DHT22;10602;48.000;9.654;2024-01-15T14:17:07;1.20;99.90
20885;DHT22;10602;48.000;9.654;2024-01-15T14:19:34;1.20;90.60
20885;DHT22;10602;48.000;9.654;2024-01-15T14:22:02;1.10;99.90
20885;DHT22;10602;48.000;9.654;2024-01-15T14:24:29;1.10;99.90
20885;DHT22;10602;48.000;9.654;2024-01-15T14:26:57;1.10;99.90
20885;DHT22;10602;48.000;9.654;2024-01-15T14:29:25;1.10;99.90
20885;DHT22;10602;48.000;9.654;2024-01-15T14:31:53;1.00;1.00
20885;DHT22;10602;48.000;9.654;2024-01-15T14:34:21;1.00;1.00
20885;DHT22;10602;48.000;9.654;2024-01-15T14:36:50;1.00;1.00
20885;DHT22;10602;48.000;9.654;2024-01-15T14:39:19;0.90;99.90
20885;DHT22;10602;48.000;9.654;2024-01-15T14:41:47;0.90;1.00
20885;DHT22;10602;48.000;9.654;2024-01-15T14:44:15;1.00;1.00
20885;DHT22;10602;48.000;9.654;2024-01-15T14:46:42;0.90;1.00
20885;DHT22;10602;48.000;9.654;2024-01-15T14:49:10;1.00;1.00
20885;DHT22;10602;48.000;9.654;2024-01-15T14:51:37;0.90;1.00
20885;DHT22;10602;48.000;9.654;2024-01-15T14:54:05;1.00;1.00
20885;DHT22;10602;48.000;9.654;2024-01-15T14:56:33;0.90;1.00
20885;DHT22;10602;48.000;9.654;2024-01-15T14:59:00;0.90;99.90
20885;DHT22;10602;48.000;9.654;2024-01-15T15:01:28;0.80;1.00
20885;DHT22;10602;48.000;9.654;2024-01-15T15:03:56;0.90;1.00
20885;DHT22;10602;48.000;9.654;2024-01-15T15:06:24;0.80;1.00
20885;DHT22;10602;48.000;9.654;2024-01-15T15:09:14;0.70;99.90
20885;DHT22;10602;48.000;9.654;2024-01-15T15:16:56;0.60;1.00
20885;DHT22;10602;48.000;9.654;2024-01-15T15:20:00;0.60;1.00
20885;DHT22;10602;48.000;9.654;2024-01-15T15:59:12;0.70;10.60
20885;DHT22;10602;48.000;9.654;2024-01-15T16:01:50;0.60;1.00
20885;DHT22;10602;48.000;9.654;2024-01-15T16:04:18;0.60;1.00
20885;DHT22;10602;48.000;9.654;2024-01-15T16:06:45;0.60;99.90
20885;DHT22;10602;48.000;9.654;2024-01-15T16:09:16;0.60;99.90
20885;DHT22;10602;48.000;9.654;2024-01-15T16:11:44;0.50;99.90
20885;DHT22;10602;48.000;9.654;2024-01-15T16:14:12;0.50;99.90
20885;DHT22;10602;48.000;9.654;2024-01-15T16:16:40;0.40;1.00
20885;DHT22;10602;48.000;9.654;2024-01-15T16:19:08;0.40;1.00
20885;DHT22;10602;48.000;9.654;2024-01-15T16:21:36;0.40;1.00
20885;DHT22;10602;48.000;9.654;2024-01-15T16:24:06;0.30;1.00
20885;DHT22;10602;48.000;9.654;2024-01-15T16:26:33;0.30;1.00
20885;DHT22;10602;48.000;9.654;2024-01-15T16:29:02;0.30;1.00
20885;DHT22;10602;48.000;9.654;2024-01-15T16:31:30;0.20;1.00
20885;DHT22;10602;48.000;9.654;2024-01-15T16:33:58;0.20;99.90
20885;DHT22;10602;48.000;9.654;2024-01-15T16:36:25;0.10;1.00
20885;DHT22;10602;48.000;9.654;2024-01-15T16:38:53;0.00;1.00
20885;DHT22;10602;48.000;9.654;2024-01-15T16:41:20;0.00;1.00
20885;DHT22;10602;48.000;9.654;2024-01-15T16:43:48;0.00;99.90
20885;DHT22;10602;48.000;9.654;2024-01-15T16:46:15;0.00;99.90
20885;DHT22;10602;48.000;9.654;2024-01-15T16:48:43;-0.10;99.90
20885;DHT22;10602;48.000;9.654;2024-01-15T16:51:11;0.00;99.90
20885;DHT22;10602;48.000;9.654;2024-01-15T16:53:39;-0.10;1.00
20885;DHT22;10602;48.000;9.654;2024-01-15T16:56:06;-0.20;1.00
20885;DHT22;10602;48.000;9.654;2024-01-15T16:58:34;-0.20;1.00
20885;DHT22;10602;48.000;9.654;2024-01-15T17:01:02;-0.10;1.00
20885;DHT22;10602;48.000;9.654;2024-01-15T17:03:29;-0.30;1.00
20885;DHT22;10602;48.000;9.654;2024-01-15T17:05:57;-0.30;1.00
20885;DHT22;10602;48.000;9.654;2024-01-15T17:08:24;-0.30;1.00
20885;DHT22;10602;48.000;9.654;2024-01-15T17:10:52;-0.20;1.00
20885;DHT22;10602;48.000;9.654;2024-01-15T17:13:19;-0.20;1.00
20885;DHT22;10602;48.000;9.654;2024-01-15T17:15:47;-0.70;1.00
20885;DHT22;10602;48.000;9.654;2024-01-15T17:18:14;-0.20;8.70
20885;DHT22;10602;48.000;9.654;2024-01-15T17:20:42;-0.20;1.00
20885;DHT22;10602;48.000;9.654;2024-01-15T17:23:11;-0.30;1.00
20885;DHT22;10602;48.000;9.654;2024-01-15T17:25:39;-0.20;1.00
20885;DHT22;10602;48.000;9.654;2024-01-15T17:28:07;-0.10;1.00